sensor_id;sensor_type;location;lat;lon;timestamp;P1;durP1;ratioP1;P2;durP2;ratioP2
76610;SDS011;65503;48.534;9.062;2023-09-30T00:03:25;12.93;;;3.22;;
76610;SDS011;65503;48.534;9.062;2023-09-30T00:05:52;10.25;;;3.00;;
76610;SDS011;65503;48.534;9.062;2023-09-30T00:08:21;10.45;;;3.22;;
76610;SDS011;65503;48.534;9.062;2023-09-30T00:10:47;10.10;;;2.88;;
76610;SDS011;65503;48.534;9.062;2023-09-30T00:13:14;11.27;;;3.17;;
76610;SDS011;65503;48.534;9.062;2023-09-30T00:15:45;10.40;;;2.97;;
76610;SDS011;65503;48.534;9.062;2023-09-30T00:18:12;10.18;;;3.83;;
76610;SDS011;65503;48.534;9.062;2023-09-30T00:20:40;12.30;;;3.33;;
76610;SDS011;65503;48.534;9.062;2023-09-30T00:23:06;9.07;;;2.80;;
76610;SDS011;65503;48.534;9.062;2023-09-30T00:25:33;11.35;;;3.90;;
76610;SDS011;65503;48.534;9.062;2023-09-30T00:27:59;9.82;;;2.97;;
76610;SDS011;65503;48.534;9.062;2023-09-30T00:30:26;16.35;;;3.85;;
76610;SDS011;65503;48.534;9.062;2023-09-30T00:32:52;11.45;;;3.35;;
76610;SDS011;65503;48.534;9.062;2023-09-30T00:35:19;11.77;;;3.55;;
76610;SDS011;65503;48.534;9.062;2023-09-30T00:37:45;11.20;;;3.78;;
76610;SDS011;65503;48.534;9.062;2023-09-30T00:40:12;9.93;;;3.20;;
76610;SDS011;65503;48.534;9.062;2023-09-30T00:42:40;12.10;;;3.17;;
76610;SDS011;65503;48.534;9.062;2023-09-30T00:45:07;8.30;;;2.67;;
76610;SDS011;65503;48.534;9.062;2023-09-30T00:47:38;11.77;;;3.05;;
76610;SDS011;65503;48.534;9.062;2023-09-30T00:50:06;12.20;;;3.17;;
76610;SDS011;65503;48.534;9.062;2023-09-30T00:52:35;9.45;;;3.05;;
76610;SDS011;65503;48.534;9.062;2023-09-30T00:55:02;9.90;;;2.95;;
76610;SDS011;65503;48.534;9.062;2023-09-30T00:57:29;10.43;;;3.28;;
76610;SDS011;65503;48.534;9.062;2023-09-30T01:02:23;9.65;;;3.40;;
76610;SDS011;65503;48.534;9.062;2023-09-30T01:04:50;11.95;;;3.47;;
76610;SDS011;65503;48.534;9.062;2023-09-30T01:07:17;9.95;;;3.03;;
76610;SDS011;65503;48.534;9.062;2023-09-30T01:09:48;10.07;;;3.15;;
76610;SDS011;65503;48.534;9.062;2023-09-30T01:12:14;10.18;;;2.92;;
76610;SDS011;65503;48.534;9.062;2023-09-30T01:14:41;10.30;;;3.20;;
76610;SDS011;65503;48.534;9.062;2023-09-30T01:17:09;10.35;;;2.92;;
76610;SDS011;65503;48.534;9.062;2023-09-30T01:19:35;9.10;;;2.53;;
76610;SDS011;65503;48.534;9.062;2023-09-30T01:22:02;10.48;;;3.75;;
76610;SDS011;65503;48.534;9.062;2023-09-30T01:24:38;11.88;;;3.47;;
76610;SDS011;65503;48.534;9.062;2023-09-30T01:27:06;9.18;;;3.05;;
76610;SDS011;65503;48.534;9.062;2023-09-30T01:29:33;9.48;;;3.00;;
76610;SDS011;65503;48.534;9.062;2023-09-30T01:32:00;7.25;;;2.63;;
76610;SDS011;65503;48.534;9.062;2023-09-30T01:34:27;8.07;;;3.03;;
76610;SDS011;65503;48.534;9.062;2023-09-30T01:36:54;8.38;;;2.40;;
76610;SDS011;65503;48.534;9.062;2023-09-30T01:39:20;10.70;;;2.67;;
76610;SDS011;65503;48.534;9.062;2023-09-30T01:41:47;9.85;;;2.90;;
76610;SDS011;65503;48.534;9.062;2023-09-30T01:44:14;11.80;;;3.03;;
76610;SDS011;65503;48.534;9.062;2023-09-30T01:46:40;8.60;;;2.70;;
76610;SDS011;65503;48.534;9.062;2023-09-30T01:49:07;10.88;;;3.35;;
76610;SDS011;65503;48.534;9.062;2023-09-30T01:51:33;8.60;;;2.78;;
76610;SDS011;65503;48.534;9.062;2023-09-30T01:54:00;9.75;;;3.10;;
76610;SDS011;65503;48.534;9.062;2023-09-30T01:56:26;10.52;;;3.30;;
76610;SDS011;65503;48.534;9.062;2023-09-30T01:58:53;10.30;;;3.10;;
76610;SDS011;65503;48.534;9.062;2023-09-30T02:01:20;10.45;;;3.58;;
76610;SDS011;65503;48.534;9.062;2023-09-30T02:03:47;8.80;;;2.95;;
76610;SDS011;65503;48.534;9.062;2023-09-30T02:06:13;10.45;;;3.22;;
76610;SDS011;65503;48.534;9.062;2023-09-30T02:08:40;9.25;;;2.95;;
76610;SDS011;65503;48.534;9.062;2023-09-30T02:11:06;9.02;;;2.60;;
76610;SDS011;65503;48.534;9.062;2023-09-30T02:13:33;8.63;;;2.65;;
76610;SDS011;65503;48.534;9.062;2023-09-30T02:16:01;9.07;;;2.35;;
76610;SDS011;65503;48.534;9.062;2023-09-30T02:18:28;8.98;;;2.75;;
76610;SDS011;65503;48.534;9.062;2023-09-30T02:20:55;10.48;;;3.50;;
76610;SDS011;65503;48.534;9.062;2023-09-30T02:23:21;12.68;;;3.83;;
76610;SDS011;65503;48.534;9.062;2023-09-30T02:25:49;10.20;;;3.38;;
76610;SDS011;65503;48.534;9.062;2023-09-30T02:28:15;13.27;;;3.90;;
76610;SDS011;65503;48.534;9.062;2023-09-30T02:30:42;12.50;;;4.60;;
76610;SDS011;65503;48.534;9.062;2023-09-30T02:33:08;12.10;;;4.07;;
76610;SDS011;65503;48.534;9.062;2023-09-30T02:35:35;11.85;;;3.67;;
76610;SDS011;65503;48.534;9.062;2023-09-30T02:38:05;12.10;;;3.88;;
76610;SDS011;65503;48.534;9.062;2023-09-30T02:40:33;13.50;;;3.72;;
76610;SDS011;65503;48.534;9.062;2023-09-30T02:43:00;13.00;;;3.50;;
76610;SDS011;65503;48.534;9.062;2023-09-30T02:45:26;11.25;;;3.58;;
76610;SDS011;65503;48.534;9.062;2023-09-30T02:47:53;11.88;;;3.85;;
76610;SDS011;65503;48.534;9.062;2023-09-30T02:50:19;12.20;;;4.55;;
76610;SDS011;65503;48.534;9.062;2023-09-30T02:52:47;10.52;;;2.85;;
76610;SDS011;65503;48.534;9.062;2023-09-30T02:55:14;9.70;;;3.22;;
76610;SDS011;65503;48.534;9.062;2023-09-30T02:57:40;10.82;;;2.80;;
76610;SDS011;65503;48.534;9.062;2023-09-30T03:00:08;8.95;;;3.08;;
76610;SDS011;65503;48.534;9.062;2023-09-30T03:02:52;9.82;;;3.30;;
76610;SDS011;65503;48.534;9.062;2023-09-30T03:05:20;10.43;;;3.50;;
76610;SDS011;65503;48.534;9.062;2023-09-30T03:07:47;9.95;;;3.80;;
76610;SDS011;65503;48.534;9.062;2023-09-30T03:10:14;9.20;;;3.28;;
76610;SDS011;65503;48.534;9.062;2023-09-30T03:12:47;9.95;;;3.20;;
76610;SDS011;65503;48.534;9.062;2023-09-30T03:15:14;10.60;;;3.65;;
76610;SDS011;65503;48.534;9.062;2023-09-30T03:17:42;13.02;;;4.28;;
76610;SDS011;65503;48.534;9.062;2023-09-30T03:20:19;11.10;;;3.67;;
76610;SDS011;65503;48.534;9.062;2023-09-30T03:22:47;13.15;;;4.13;;
76610;SDS011;65503;48.534;9.062;2023-09-30T03:25:14;11.23;;;3.40;;
76610;SDS011;65503;48.534;9.062;2023-09-30T03:27:44;11.85;;;3.72;;
76610;SDS011;65503;48.534;9.062;2023-09-30T03:30:27;10.68;;;3.55;;
76610;SDS011;65503;48.534;9.062;2023-09-30T03:32:57;11.15;;;3.60;;
76610;SDS011;65503;48.534;9.062;2023-09-30T03:35:23;10.73;;;3.47;;
76610;SDS011;65503;48.534;9.062;2023-09-30T03:37:50;10.63;;;3.60;;
76610;SDS011;65503;48.534;9.062;2023-09-30T03:40:17;12.07;;;3.33;;
76610;SDS011;65503;48.534;9.062;2023-09-30T03:42:54;10.65;;;3.70;;
76610;SDS011;65503;48.534;9.062;2023-09-30T03:45:23;11.98;;;4.03;;
76610;SDS011;65503;48.534;9.062;2023-09-30T03:47:59;11.13;;;3.70;;
76610;SDS011;65503;48.534;9.062;2023-09-30T03:50:28;9.45;;;3.05;;
76610;SDS011;65503;48.534;9.062;2023-09-30T03:53:02;8.43;;;3.10;;
76610;SDS011;65503;48.534;9.062;2023-09-30T03:55:39;9.75;;;3.20;;
76610;SDS011;65503;48.534;9.062;2023-09-30T04:00:33;9.20;;;2.95;;
76610;SDS011;65503;48.534;9.062;2023-09-30T04:03:00;9.32;;;3.25;;
76610;SDS011;65503;48.534;9.062;2023-09-30T04:05:27;9.60;;;3.35;;
76610;SDS011;65503;48.534;9.062;2023-09-30T04:08:03;12.88;;;3.42;;
76610;SDS011;65503;48.534;9.062;2023-09-30T04:10:31;9.93;;;3.53;;
76610;SDS011;65503;48.534;9.062;2023-09-30T04:13:11;9.85;;;3.42;;
76610;SDS011;65503;48.534;9.062;2023-09-30T04:16:04;12.13;;;4.00;;
76610;SDS011;65503;48.534;9.062;2023-09-30T04:18:32;14.75;;;4.65;;
76610;SDS011;65503;48.534;9.062;2023-09-30T04:21:02;13.10;;;3.70;;
76610;SDS011;65503;48.534;9.062;2023-09-30T04:23:41;13.77;;;4.65;;
76610;SDS011;65503;48.534;9.062;2023-09-30T04:26:08;10.23;;;3.80;;
76610;SDS011;65503;48.534;9.062;2023-09-30T04:28:35;10.98;;;4.18;;
76610;SDS011;65503;48.534;9.062;2023-09-30T04:31:02;10.10;;;3.67;;
76610;SDS011;65503;48.534;9.062;2023-09-30T04:33:30;9.88;;;3.70;;
76610;SDS011;65503;48.534;9.062;2023-09-30T04:36:19;10.15;;;4.05;;
76610;SDS011;65503;48.534;9.062;2023-09-30T04:38:46;12.10;;;4.30;;
76610;SDS011;65503;48.534;9.062;2023-09-30T04:41:13;13.13;;;3.72;;
76610;SDS011;65503;48.534;9.062;2023-09-30T04:43:59;14.65;;;4.05;;
76610;SDS011;65503;48.534;9.062;2023-09-30T04:46:32;12.98;;;3.88;;
76610;SDS011;65503;48.534;9.062;2023-09-30T04:49:01;12.30;;;3.65;;
76610;SDS011;65503;48.534;9.062;2023-09-30T04:54:31;14.88;;;4.88;;
76610;SDS011;65503;48.534;9.062;2023-09-30T04:57:39;10.48;;;3.45;;
76610;SDS011;65503;48.534;9.062;2023-09-30T05:00:48;10.52;;;3.92;;
76610;SDS011;65503;48.534;9.062;2023-09-30T05:03:44;13.65;;;4.60;;
76610;SDS011;65503;48.534;9.062;2023-09-30T05:06:50;10.13;;;3.95;;
76610;SDS011;65503;48.534;9.062;2023-09-30T05:09:18;10.98;;;4.00;;
76610;SDS011;65503;48.534;9.062;2023-09-30T05:12:01;10.65;;;4.15;;
76610;SDS011;65503;48.534;9.062;2023-09-30T05:14:49;11.25;;;3.80;;
76610;SDS011;65503;48.534;9.062;2023-09-30T05:17:18;8.70;;;3.38;;
76610;SDS011;65503;48.534;9.062;2023-09-30T05:19:47;9.20;;;3.05;;
76610;SDS011;65503;48.534;9.062;2023-09-30T05:22:56;8.27;;;2.78;;
76610;SDS011;65503;48.534;9.062;2023-09-30T05:25:23;8.80;;;3.17;;
76610;SDS011;65503;48.534;9.062;2023-09-30T05:27:54;8.82;;;3.42;;
76610;SDS011;65503;48.534;9.062;2023-09-30T05:30:20;9.90;;;3.13;;
76610;SDS011;65503;48.534;9.062;2023-09-30T05:32:47;10.38;;;3.65;;
76610;SDS011;65503;48.534;9.062;2023-09-30T05:35:14;7.70;;;3.13;;
76610;SDS011;65503;48.534;9.062;2023-09-30T05:37:43;9.35;;;2.85;;
76610;SDS011;65503;48.534;9.062;2023-09-30T05:40:11;8.57;;;3.10;;
76610;SDS011;65503;48.534;9.062;2023-09-30T05:42:49;12.40;;;4.05;;
76610;SDS011;65503;48.534;9.062;2023-09-30T05:45:16;9.50;;;3.17;;
76610;SDS011;65503;48.534;9.062;2023-09-30T05:47:43;10.65;;;3.20;;
76610;SDS011;65503;48.534;9.062;2023-09-30T05:50:11;8.60;;;3.10;;
76610;SDS011;65503;48.534;9.062;2023-09-30T05:52:43;10.95;;;3.85;;
76610;SDS011;65503;48.534;9.062;2023-09-30T05:55:13;8.90;;;2.90;;
76610;SDS011;65503;48.534;9.062;2023-09-30T05:57:41;7.93;;;2.58;;
76610;SDS011;65503;48.534;9.062;2023-09-30T06:02:40;8.98;;;3.13;;
76610;SDS011;65503;48.534;9.062;2023-09-30T06:05:08;11.75;;;3.33;;
76610;SDS011;65503;48.534;9.062;2023-09-30T06:07:35;9.05;;;3.05;;
76610;SDS011;65503;48.534;9.062;2023-09-30T06:10:01;8.65;;;2.97;;
76610;SDS011;65503;48.534;9.062;2023-09-30T06:12:29;8.15;;;2.70;;
76610;SDS011;65503;48.534;9.062;2023-09-30T06:14:56;8.77;;;3.30;;
76610;SDS011;65503;48.534;9.062;2023-09-30T06:17:22;8.40;;;2.80;;
76610;SDS011;65503;48.534;9.062;2023-09-30T06:19:49;7.88;;;3.00;;
76610;SDS011;65503;48.534;9.062;2023-09-30T06:22:16;9.85;;;3.17;;
76610;SDS011;65503;48.534;9.062;2023-09-30T06:24:43;7.25;;;2.63;;
76610;SDS011;65503;48.534;9.062;2023-09-30T06:27:10;7.65;;;2.63;;
76610;SDS011;65503;48.534;9.062;2023-09-30T06:29:39;8.77;;;2.80;;
76610;SDS011;65503;48.534;9.062;2023-09-30T06:32:07;9.43;;;2.88;;
76610;SDS011;65503;48.534;9.062;2023-09-30T06:34:33;10.05;;;3.08;;
76610;SDS011;65503;48.534;9.062;2023-09-30T06:37:00;7.75;;;2.42;;
76610;SDS011;65503;48.534;9.062;2023-09-30T06:39:27;7.55;;;2.92;;
76610;SDS011;65503;48.534;9.062;2023-09-30T06:41:55;8.32;;;3.30;;
76610;SDS011;65503;48.534;9.062;2023-09-30T06:44:22;9.68;;;3.38;;
76610;SDS011;65503;48.534;9.062;2023-09-30T06:46:51;9.30;;;3.13;;
76610;SDS011;65503;48.534;9.062;2023-09-30T06:49:18;7.70;;;2.60;;
76610;SDS011;65503;48.534;9.062;2023-09-30T06:51:44;9.13;;;2.95;;
76610;SDS011;65503;48.534;9.062;2023-09-30T06:54:11;7.47;;;2.20;;
76610;SDS011;65503;48.534;9.062;2023-09-30T06:56:37;6.75;;;2.50;;
76610;SDS011;65503;48.534;9.062;2023-09-30T06:59:04;8.15;;;3.20;;
76610;SDS011;65503;48.534;9.062;2023-09-30T07:01:32;9.90;;;3.17;;
76610;SDS011;65503;48.534;9.062;2023-09-30T07:03:59;9.27;;;2.88;;
76610;SDS011;65503;48.534;9.062;2023-09-30T07:06:25;8.68;;;3.05;;
76610;SDS011;65503;48.534;9.062;2023-09-30T07:08:53;8.55;;;2.88;;
76610;SDS011;65503;48.534;9.062;2023-09-30T07:11:29;9.45;;;3.03;;
76610;SDS011;65503;48.534;9.062;2023-09-30T07:13:58;8.98;;;3.25;;
76610;SDS011;65503;48.534;9.062;2023-09-30T07:16:25;8.23;;;2.53;;
76610;SDS011;65503;48.534;9.062;2023-09-30T07:18:51;8.27;;;2.67;;
76610;SDS011;65503;48.534;9.062;2023-09-30T07:21:18;6.80;;;2.63;;
76610;SDS011;65503;48.534;9.062;2023-09-30T07:23:45;8.95;;;2.80;;
76610;SDS011;65503;48.534;9.062;2023-09-30T07:26:11;11.07;;;2.72;;
76610;SDS011;65503;48.534;9.062;2023-09-30T07:28:38;8.85;;;3.28;;
76610;SDS011;65503;48.534;9.062;2023-09-30T07:31:04;8.45;;;3.15;;
76610;SDS011;65503;48.534;9.062;2023-09-30T07:33:31;8.93;;;2.60;;
76610;SDS011;65503;48.534;9.062;2023-09-30T07:35:57;8.25;;;2.97;;
76610;SDS011;65503;48.534;9.062;2023-09-30T07:38:24;8.43;;;3.10;;
76610;SDS011;65503;48.534;9.062;2023-09-30T07:40:50;9.20;;;3.13;;
76610;SDS011;65503;48.534;9.062;2023-09-30T07:43:17;10.02;;;3.53;;
76610;SDS011;65503;48.534;9.062;2023-09-30T07:45:44;9.23;;;2.65;;
76610;SDS011;65503;48.534;9.062;2023-09-30T07:48:10;10.45;;;3.15;;
76610;SDS011;65503;48.534;9.062;2023-09-30T07:50:37;7.70;;;2.90;;
76610;SDS011;65503;48.534;9.062;2023-09-30T07:53:05;8.93;;;3.20;;
76610;SDS011;65503;48.534;9.062;2023-09-30T07:55:32;9.10;;;3.20;;
76610;SDS011;65503;48.534;9.062;2023-09-30T07:57:58;11.63;;;3.88;;
76610;SDS011;65503;48.534;9.062;2023-09-30T08:00:26;11.57;;;3.38;;
76610;SDS011;65503;48.534;9.062;2023-09-30T08:02:53;11.00;;;3.75;;
76610;SDS011;65503;48.534;9.062;2023-09-30T08:05:19;9.68;;;3.50;;
76610;SDS011;65503;48.534;9.062;2023-09-30T08:07:46;7.68;;;2.60;;
76610;SDS011;65503;48.534;9.062;2023-09-30T08:10:12;9.35;;;2.63;;
76610;SDS011;65503;48.534;9.062;2023-09-30T08:12:40;10.05;;;2.80;;
76610;SDS011;65503;48.534;9.062;2023-09-30T08:15:09;6.57;;;2.78;;
76610;SDS011;65503;48.534;9.062;2023-09-30T08:17:38;7.07;;;2.47;;
76610;SDS011;65503;48.534;9.062;2023-09-30T08:20:05;8.73;;;3.35;;
76610;SDS011;65503;48.534;9.062;2023-09-30T08:22:32;7.80;;;2.72;;
76610;SDS011;65503;48.534;9.062;2023-09-30T08:24:59;6.35;;;2.60;;
76610;SDS011;65503;48.534;9.062;2023-09-30T08:27:26;7.32;;;2.70;;
76610;SDS011;65503;48.534;9.062;2023-09-30T08:29:53;8.95;;;2.70;;
76610;SDS011;65503;48.534;9.062;2023-09-30T08:32:19;6.45;;;2.80;;
76610;SDS011;65503;48.534;9.062;2023-09-30T08:34:46;6.78;;;2.72;;
76610;SDS011;65503;48.534;9.062;2023-09-30T08:37:12;7.93;;;2.97;;
76610;SDS011;65503;48.534;9.062;2023-09-30T08:39:39;8.13;;;2.92;;
76610;SDS011;65503;48.534;9.062;2023-09-30T08:42:10;8.50;;;2.72;;
76610;SDS011;65503;48.534;9.062;2023-09-30T08:44:40;8.95;;;3.22;;
76610;SDS011;65503;48.534;9.062;2023-09-30T08:49:40;6.07;;;3.03;;
76610;SDS011;65503;48.534;9.062;2023-09-30T08:52:09;8.25;;;3.35;;
76610;SDS011;65503;48.534;9.062;2023-09-30T08:54:36;6.72;;;2.47;;
76610;SDS011;65503;48.534;9.062;2023-09-30T08:57:04;7.25;;;2.50;;
76610;SDS011;65503;48.534;9.062;2023-09-30T08:59:31;9.43;;;3.00;;
76610;SDS011;65503;48.534;9.062;2023-09-30T09:02:02;6.32;;;2.80;;
76610;SDS011;65503;48.534;9.062;2023-09-30T09:04:28;7.28;;;2.78;;
76610;SDS011;65503;48.534;9.062;2023-09-30T09:06:55;7.43;;;3.03;;
76610;SDS011;65503;48.534;9.062;2023-09-30T09:09:22;8.35;;;3.03;;
76610;SDS011;65503;48.534;9.062;2023-09-30T09:11:49;7.68;;;2.80;;
76610;SDS011;65503;48.534;9.062;2023-09-30T09:14:17;7.88;;;2.72;;
76610;SDS011;65503;48.534;9.062;2023-09-30T09:16:53;10.73;;;3.30;;
76610;SDS011;65503;48.534;9.062;2023-09-30T09:19:22;6.90;;;2.70;;
76610;SDS011;65503;48.534;9.062;2023-09-30T09:24:35;6.80;;;2.90;;
76610;SDS011;65503;48.534;9.062;2023-09-30T09:27:04;7.93;;;3.20;;
76610;SDS011;65503;48.534;9.062;2023-09-30T09:29:39;8.38;;;2.85;;
76610;SDS011;65503;48.534;9.062;2023-09-30T09:32:14;9.30;;;3.20;;
76610;SDS011;65503;48.534;9.062;2023-09-30T09:34:43;6.43;;;3.10;;
76610;SDS011;65503;48.534;9.062;2023-09-30T09:37:14;7.15;;;2.95;;
76610;SDS011;65503;48.534;9.062;2023-09-30T09:40:03;8.45;;;3.25;;
76610;SDS011;65503;48.534;9.062;2023-09-30T09:42:31;7.05;;;3.05;;
76610;SDS011;65503;48.534;9.062;2023-09-30T09:45:03;8.43;;;3.30;;
76610;SDS011;65503;48.534;9.062;2023-09-30T09:47:32;8.95;;;2.78;;
76610;SDS011;65503;48.534;9.062;2023-09-30T09:49:59;8.63;;;3.53;;
76610;SDS011;65503;48.534;9.062;2023-09-30T09:52:26;8.00;;;3.03;;
76610;SDS011;65503;48.534;9.062;2023-09-30T09:54:54;8.60;;;3.60;;
76610;SDS011;65503;48.534;9.062;2023-09-30T09:57:21;6.93;;;3.20;;
76610;SDS011;65503;48.534;9.062;2023-09-30T09:59:51;8.10;;;3.78;;
76610;SDS011;65503;48.534;9.062;2023-09-30T10:02:20;7.47;;;2.88;;
76610;SDS011;65503;48.534;9.062;2023-09-30T10:04:48;8.13;;;3.67;;
76610;SDS011;65503;48.534;9.062;2023-09-30T10:07:21;7.18;;;3.10;;
76610;SDS011;65503;48.534;9.062;2023-09-30T10:09:52;6.88;;;2.55;;
76610;SDS011;65503;48.534;9.062;2023-09-30T10:12:20;7.90;;;2.85;;
76610;SDS011;65503;48.534;9.062;2023-09-30T10:14:51;7.30;;;2.95;;
76610;SDS011;65503;48.534;9.062;2023-09-30T10:17:18;8.77;;;3.25;;
76610;SDS011;65503;48.534;9.062;2023-09-30T10:20:04;8.38;;;3.30;;
76610;SDS011;65503;48.534;9.062;2023-09-30T10:22:32;9.70;;;3.53;;
76610;SDS011;65503;48.534;9.062;2023-09-30T10:27:48;11.55;;;3.28;;
76610;SDS011;65503;48.534;9.062;2023-09-30T10:30:14;10.40;;;3.95;;
76610;SDS011;65503;48.534;9.062;2023-09-30T10:35:21;8.23;;;3.25;;
76610;SDS011;65503;48.534;9.062;2023-09-30T10:40:57;10.27;;;4.03;;
76610;SDS011;65503;48.534;9.062;2023-09-30T10:49:17;10.38;;;3.42;;
76610;SDS011;65503;48.534;9.062;2023-09-30T10:52:05;10.55;;;3.88;;
76610;SDS011;65503;48.534;9.062;2023-09-30T10:54:32;8.95;;;3.20;;
76610;SDS011;65503;48.534;9.062;2023-09-30T10:57:00;9.98;;;3.72;;
76610;SDS011;65503;48.534;9.062;2023-09-30T10:59:27;12.23;;;4.15;;
76610;SDS011;65503;48.534;9.062;2023-09-30T11:01:59;11.50;;;4.15;;
76610;SDS011;65503;48.534;9.062;2023-09-30T11:04:26;10.07;;;3.70;;
76610;SDS011;65503;48.534;9.062;2023-09-30T11:06:56;13.07;;;4.20;;
76610;SDS011;65503;48.534;9.062;2023-09-30T11:09:25;9.95;;;4.15;;
76610;SDS011;65503;48.534;9.062;2023-09-30T11:11:52;12.93;;;4.85;;
76610;SDS011;65503;48.534;9.062;2023-09-30T11:14:28;10.00;;;3.78;;
76610;SDS011;65503;48.534;9.062;2023-09-30T11:16:57;15.70;;;4.85;;
76610;SDS011;65503;48.534;9.062;2023-09-30T11:19:26;8.95;;;3.75;;
76610;SDS011;65503;48.534;9.062;2023-09-30T11:21:53;9.07;;;3.90;;
76610;SDS011;65503;48.534;9.062;2023-09-30T11:24:23;11.68;;;4.60;;
76610;SDS011;65503;48.534;9.062;2023-09-30T11:26:52;12.10;;;4.13;;
76610;SDS011;65503;48.534;9.062;2023-09-30T11:29:20;11.45;;;4.70;;
76610;SDS011;65503;48.534;9.062;2023-09-30T11:31:47;13.65;;;4.85;;
76610;SDS011;65503;48.534;9.062;2023-09-30T11:34:17;11.25;;;4.65;;
76610;SDS011;65503;48.534;9.062;2023-09-30T11:36:49;12.50;;;4.35;;
76610;SDS011;65503;48.534;9.062;2023-09-30T11:39:27;10.98;;;4.57;;
76610;SDS011;65503;48.534;9.062;2023-09-30T11:41:56;15.60;;;4.60;;
76610;SDS011;65503;48.534;9.062;2023-09-30T11:44:24;14.25;;;4.90;;
76610;SDS011;65503;48.534;9.062;2023-09-30T11:52:02;13.38;;;5.22;;
76610;SDS011;65503;48.534;9.062;2023-09-30T11:54:31;12.75;;;4.93;;
76610;SDS011;65503;48.534;9.062;2023-09-30T11:57:07;13.35;;;5.50;;
76610;SDS011;65503;48.534;9.062;2023-09-30T11:59:37;14.80;;;4.85;;
76610;SDS011;65503;48.534;9.062;2023-09-30T12:02:05;14.45;;;5.72;;
76610;SDS011;65503;48.534;9.062;2023-09-30T12:04:40;11.85;;;4.20;;
76610;SDS011;65503;48.534;9.062;2023-09-30T12:07:08;13.50;;;4.43;;
76610;SDS011;65503;48.534;9.062;2023-09-30T12:09:34;12.75;;;5.38;;
76610;SDS011;65503;48.534;9.062;2023-09-30T12:12:04;12.77;;;4.72;;
76610;SDS011;65503;48.534;9.062;2023-09-30T12:14:31;13.15;;;4.80;;
76610;SDS011;65503;48.534;9.062;2023-09-30T12:16:58;13.05;;;4.72;;
76610;SDS011;65503;48.534;9.062;2023-09-30T12:19:25;15.05;;;4.90;;
76610;SDS011;65503;48.534;9.062;2023-09-30T12:21:53;13.18;;;4.55;;
76610;SDS011;65503;48.534;9.062;2023-09-30T12:26:48;13.18;;;4.88;;
76610;SDS011;65503;48.534;9.062;2023-09-30T12:29:17;12.23;;;4.63;;
76610;SDS011;65503;48.534;9.062;2023-09-30T12:31:45;11.55;;;4.70;;
76610;SDS011;65503;48.534;9.062;2023-09-30T12:34:19;13.57;;;4.45;;
76610;SDS011;65503;48.534;9.062;2023-09-30T12:36:45;11.68;;;4.57;;
76610;SDS011;65503;48.534;9.062;2023-09-30T12:39:14;10.52;;;4.47;;
76610;SDS011;65503;48.534;9.062;2023-09-30T12:41:43;9.57;;;3.92;;
76610;SDS011;65503;48.534;9.062;2023-09-30T12:44:12;11.07;;;4.45;;
76610;SDS011;65503;48.534;9.062;2023-09-30T12:46:39;11.95;;;4.82;;
76610;SDS011;65503;48.534;9.062;2023-09-30T12:49:06;12.68;;;4.93;;
76610;SDS011;65503;48.534;9.062;2023-09-30T12:51:33;11.15;;;4.47;;
76610;SDS011;65503;48.534;9.062;2023-09-30T12:54:00;11.65;;;4.93;;
76610;SDS011;65503;48.534;9.062;2023-09-30T12:56:27;14.02;;;4.43;;
76610;SDS011;65503;48.534;9.062;2023-09-30T12:58:58;11.02;;;4.97;;
76610;SDS011;65503;48.534;9.062;2023-09-30T13:01:25;10.75;;;4.22;;
76610;SDS011;65503;48.534;9.062;2023-09-30T13:03:55;10.13;;;4.82;;
76610;SDS011;65503;48.534;9.062;2023-09-30T13:06:22;12.02;;;4.10;;
76610;SDS011;65503;48.534;9.062;2023-09-30T13:11:15;10.57;;;3.83;;
76610;SDS011;65503;48.534;9.062;2023-09-30T13:13:42;11.27;;;4.40;;
76610;SDS011;65503;48.534;9.062;2023-09-30T13:16:10;11.65;;;4.22;;
76610;SDS011;65503;48.534;9.062;2023-09-30T13:18:38;12.23;;;4.93;;
76610;SDS011;65503;48.534;9.062;2023-09-30T13:21:05;11.77;;;3.90;;
76610;SDS011;65503;48.534;9.062;2023-09-30T13:23:32;9.85;;;3.75;;
76610;SDS011;65503;48.534;9.062;2023-09-30T13:26:00;9.80;;;4.32;;
76610;SDS011;65503;48.534;9.062;2023-09-30T13:28:27;9.05;;;3.83;;
76610;SDS011;65503;48.534;9.062;2023-09-30T13:30:54;7.93;;;3.17;;
76610;SDS011;65503;48.534;9.062;2023-09-30T13:33:22;11.30;;;4.03;;
76610;SDS011;65503;48.534;9.062;2023-09-30T13:35:48;10.20;;;4.10;;
76610;SDS011;65503;48.534;9.062;2023-09-30T13:38:15;12.45;;;4.07;;
76610;SDS011;65503;48.534;9.062;2023-09-30T13:40:42;12.00;;;4.30;;
76610;SDS011;65503;48.534;9.062;2023-09-30T13:43:10;12.13;;;4.05;;
76610;SDS011;65503;48.534;9.062;2023-09-30T13:45:37;12.00;;;4.10;;
76610;SDS011;65503;48.534;9.062;2023-09-30T13:48:04;11.48;;;4.60;;
76610;SDS011;65503;48.534;9.062;2023-09-30T13:50:31;11.48;;;4.70;;
76610;SDS011;65503;48.534;9.062;2023-09-30T13:52:58;11.13;;;4.03;;
76610;SDS011;65503;48.534;9.062;2023-09-30T13:55:27;12.45;;;3.90;;
76610;SDS011;65503;48.534;9.062;2023-09-30T13:57:53;10.18;;;3.80;;
76610;SDS011;65503;48.534;9.062;2023-09-30T14:00:20;11.10;;;4.32;;
76610;SDS011;65503;48.534;9.062;2023-09-30T14:02:47;12.18;;;4.40;;
76610;SDS011;65503;48.534;9.062;2023-09-30T14:05:15;10.15;;;4.18;;
76610;SDS011;65503;48.534;9.062;2023-09-30T14:07:43;9.68;;;4.50;;
76610;SDS011;65503;48.534;9.062;2023-09-30T14:10:10;10.52;;;3.88;;
76610;SDS011;65503;48.534;9.062;2023-09-30T14:12:37;13.52;;;4.45;;
76610;SDS011;65503;48.534;9.062;2023-09-30T14:15:06;11.40;;;4.10;;
76610;SDS011;65503;48.534;9.062;2023-09-30T14:17:33;11.20;;;4.22;;
76610;SDS011;65503;48.534;9.062;2023-09-30T14:20:01;9.57;;;4.18;;
76610;SDS011;65503;48.534;9.062;2023-09-30T14:22:31;11.15;;;4.30;;
76610;SDS011;65503;48.534;9.062;2023-09-30T14:24:58;11.52;;;4.43;;
76610;SDS011;65503;48.534;9.062;2023-09-30T14:27:24;11.15;;;4.30;;
76610;SDS011;65503;48.534;9.062;2023-09-30T14:29:52;10.55;;;3.85;;
76610;SDS011;65503;48.534;9.062;2023-09-30T14:32:19;11.07;;;4.38;;
76610;SDS011;65503;48.534;9.062;2023-09-30T14:34:45;8.98;;;3.95;;
76610;SDS011;65503;48.534;9.062;2023-09-30T14:42:06;11.60;;;4.45;;
76610;SDS011;65503;48.534;9.062;2023-09-30T14:44:32;8.75;;;3.88;;
76610;SDS011;65503;48.534;9.062;2023-09-30T14:46:59;10.80;;;4.07;;
76610;SDS011;65503;48.534;9.062;2023-09-30T14:49:26;10.50;;;4.60;;
76610;SDS011;65503;48.534;9.062;2023-09-30T14:51:53;11.88;;;4.03;;
76610;SDS011;65503;48.534;9.062;2023-09-30T14:54:19;12.13;;;4.00;;
76610;SDS011;65503;48.534;9.062;2023-09-30T14:56:48;10.80;;;4.20;;
76610;SDS011;65503;48.534;9.062;2023-09-30T14:59:15;12.75;;;4.40;;
76610;SDS011;65503;48.534;9.062;2023-09-30T15:01:42;11.07;;;4.43;;
76610;SDS011;65503;48.534;9.062;2023-09-30T15:04:09;10.68;;;4.05;;
76610;SDS011;65503;48.534;9.062;2023-09-30T15:06:36;10.60;;;4.38;;
76610;SDS011;65503;48.534;9.062;2023-09-30T15:11:31;9.98;;;4.18;;
76610;SDS011;65503;48.534;9.062;2023-09-30T15:13:57;10.23;;;4.03;;
76610;SDS011;65503;48.534;9.062;2023-09-30T15:16:24;12.00;;;4.22;;
76610;SDS011;65503;48.534;9.062;2023-09-30T15:18:52;11.82;;;4.10;;
76610;SDS011;65503;48.534;9.062;2023-09-30T15:21:19;10.95;;;4.32;;
76610;SDS011;65503;48.534;9.062;2023-09-30T15:23:46;11.93;;;4.30;;
76610;SDS011;65503;48.534;9.062;2023-09-30T15:26:13;10.10;;;4.03;;
76610;SDS011;65503;48.534;9.062;2023-09-30T15:28:40;11.15;;;4.03;;
76610;SDS011;65503;48.534;9.062;2023-09-30T15:31:06;10.93;;;4.10;;
76610;SDS011;65503;48.534;9.062;2023-09-30T15:33:34;11.73;;;4.32;;
76610;SDS011;65503;48.534;9.062;2023-09-30T15:38:37;9.45;;;3.83;;
76610;SDS011;65503;48.534;9.062;2023-09-30T15:41:04;9.70;;;4.30;;
76610;SDS011;65503;48.534;9.062;2023-09-30T15:45:59;10.70;;;4.00;;